Time,TemperatureF,DewpointF,PressureIn,WindDirection,WindDirectionDegrees,WindSpeedMPH,WindSpeedGustMPH,Humidity,HourlyPrecipIn,Conditions,Clouds,dailyrainin,SoftwareType,DateUTC
2013-03-18 00:23:00,33.0,32.0,-100.00,East,84,10.0,16.0,96,0.06,,,0.49,,2013-03-18 04:23:00,
2013-03-18 00:33:00,33.0,32.0,-100.00,East,84,10.0,16.0,96,0.06,,,0.49,,2013-03-18 04:33:00,
2013-03-18 00:42:00,33.0,32.0,-100.00,East,84,10.0,16.0,96,0.06,,,0.49,,2013-03-18 04:42:00,
2013-03-18 00:52:00,33.0,32.0,-100.00,East,84,10.0,16.0,96,0.06,,,0.49,,2013-03-18 04:52:00,
2013-03-18 01:22:00,33.0,32.0,-100.00,ENE,78,9.0,16.0,96,0.09,,,0.58,,2013-03-18 05:22:00,
2013-03-18 01:32:00,33.0,32.0,-100.00,ENE,78,9.0,16.0,96,0.09,,,0.58,,2013-03-18 05:32:00,
2013-03-18 01:43:00,33.0,32.0,-100.00,ENE,78,9.0,16.0,96,0.09,,,0.58,,2013-03-18 05:43:00,
2013-03-18 01:52:00,33.0,32.0,-100.00,ENE,78,9.0,16.0,96,0.09,,,0.58,,2013-03-18 05:52:00,
2013-03-18 02:22:00,34.0,33.0,-100.00,East,80,11.0,16.0,97,0.13,,,0.71,,2013-03-18 06:22:00,
2013-03-18 02:32:00,34.0,33.0,-100.00,East,80,11.0,16.0,97,0.13,,,0.71,,2013-03-18 06:32:00,
2013-03-18 02:42:00,34.0,33.0,-100.00,East,80,11.0,16.0,97,0.13,,,0.71,,2013-03-18 06:42:00,
2013-03-18 02:52:00,34.0,33.0,-100.00,East,80,11.0,16.0,97,0.13,,,0.71,,2013-03-18 06:52:00,
2013-03-18 03:23:00,34.0,33.0,-100.00,East,84,9.0,19.0,97,0.03,,,0.74,,2013-03-18 07:23:00,
2013-03-18 03:33:00,34.0,33.0,-100.00,East,84,9.0,19.0,97,0.03,,,0.74,,2013-03-18 07:33:00,
2013-03-18 03:42:00,34.0,33.0,-100.00,East,84,9.0,19.0,97,0.03,,,0.74,,2013-03-18 07:42:00,
2013-03-18 03:52:00,34.0,33.0,-100.00,East,84,9.0,19.0,97,0.03,,,0.74,,2013-03-18 07:52:00,
2013-03-18 04:22:00,34.0,33.0,-100.00,East,93,10.0,20.0,97,0.01,,,0.75,,2013-03-18 08:22:00,
2013-03-18 04:32:00,34.0,33.0,-100.00,East,93,10.0,20.0,97,0.01,,,0.75,,2013-03-18 08:32:00,
2013-03-18 04:43:00,34.0,33.0,-100.00,East,93,10.0,20.0,97,0.01,,,0.75,,2013-03-18 08:43:00,
2013-03-18 04:52:00,34.0,33.0,-100.00,East,93,10.0,20.0,97,0.01,,,0.75,,2013-03-18 08:52:00,
2013-03-18 05:22:00,34.0,33.0,-100.00,East,89,9.0,18.0,97,0.02,,,0.77,,2013-03-18 09:22:00,
2013-03-18 05:33:00,34.0,33.0,-100.00,East,89,9.0,18.0,97,0.02,,,0.77,,2013-03-18 09:33:00,
2013-03-18 05:43:00,34.0,33.0,-100.00,East,89,9.0,18.0,97,0.02,,,0.77,,2013-03-18 09:43:00,
2013-03-18 05:53:00,34.0,33.0,-100.00,East,89,9.0,18.0,97,0.02,,,0.77,,2013-03-18 09:53:00,
2013-03-18 06:23:00,34.0,34.0,-100.00,North,352,8.0,18.0,98,0.08,,,0.85,,2013-03-18 10:23:00,
2013-03-18 06:33:00,34.0,34.0,-100.00,North,352,8.0,18.0,98,0.08,,,0.85,,2013-03-18 10:33:00,
2013-03-18 06:42:00,34.0,34.0,-100.00,North,352,8.0,18.0,98,0.08,,,0.85,,2013-03-18 10:42:00,
2013-03-18 06:52:00,34.0,34.0,-100.00,North,352,8.0,18.0,98,0.08,,,0.85,,2013-03-18 10:52:00,
2013-03-18 07:22:00,35.0,34.0,-100.00,East,101,9.0,14.0,98,0.31,,,1.16,,2013-03-18 11:22:00,
2013-03-18 07:32:00,35.0,34.0,-100.00,East,101,9.0,14.0,98,0.31,,,1.16,,2013-03-18 11:32:00,
2013-03-18 07:42:00,35.0,34.0,-100.00,East,101,9.0,14.0,98,0.31,,,1.16,,2013-03-18 11:42:00,
2013-03-18 07:52:00,35.0,34.0,-100.00,East,101,9.0,14.0,98,0.31,,,1.16,,2013-03-18 11:52:00,
2013-03-18 08:22:00,35.0,34.0,-100.00,East,84,6.0,15.0,98,0.03,,,1.19,,2013-03-18 12:22:00,
2013-03-18 08:33:00,35.0,34.0,-100.00,East,84,6.0,15.0,98,0.03,,,1.19,,2013-03-18 12:33:00,
2013-03-18 08:43:00,35.0,34.0,-100.00,East,84,6.0,15.0,98,0.03,,,1.19,,2013-03-18 12:43:00,
2013-03-18 08:52:00,35.0,34.0,-100.00,East,84,6.0,15.0,98,0.03,,,1.19,,2013-03-18 12:52:00,
2013-03-18 09:23:00,35.0,34.0,-100.00,East,89,7.0,10.0,98,0.00,,,1.19,,2013-03-18 13:23:00,
2013-03-18 09:33:00,35.0,34.0,-100.00,East,89,7.0,10.0,98,0.00,,,1.19,,2013-03-18 13:33:00,
2013-03-18 09:42:00,35.0,34.0,-100.00,East,89,7.0,10.0,98,0.00,,,1.19,,2013-03-18 13:42:00,
2013-03-18 09:52:00,35.0,34.0,-100.00,East,89,7.0,10.0,98,0.00,,,1.19,,2013-03-18 13:52:00,
2013-03-18 10:22:00,36.0,35.0,-100.00,ESE,104,7.0,12.0,98,0.00,,,1.19,,2013-03-18 14:22:00,
2013-03-18 10:32:00,36.0,35.0,-100.00,ESE,104,7.0,12.0,98,0.00,,,1.19,,2013-03-18 14:32:00,
2013-03-18 10:42:00,36.0,35.0,-100.00,ESE,104,7.0,12.0,98,0.00,,,1.19,,2013-03-18 14:42:00,
2013-03-18 10:52:00,36.0,35.0,-100.00,ESE,104,7.0,12.0,98,0.00,,,1.19,,2013-03-18 14:52:00,
2013-03-18 11:23:00,38.0,37.0,-100.00,ESE,112,5.0,11.0,98,0.00,,,1.19,,2013-03-18 15:23:00,
2013-03-18 11:33:00,38.0,37.0,-100.00,ESE,112,5.0,11.0,98,0.00,,,1.19,,2013-03-18 15:33:00,
2013-03-18 11:43:00,38.0,37.0,-100.00,ESE,112,5.0,11.0,98,0.00,,,1.19,,2013-03-18 15:43:00,
2013-03-18 11:52:00,38.0,37.0,-100.00,ESE,112,5.0,11.0,98,0.00,,,1.19,,2013-03-18 15:52:00,
2013-03-18 12:23:00,40.0,39.0,-100.00,ESE,120,4.0,8.0,98,0.02,,,1.21,,2013-03-18 16:23:00,
2013-03-18 12:33:00,40.0,39.0,-100.00,ESE,120,4.0,8.0,98,0.02,,,1.21,,2013-03-18 16:33:00,
2013-03-18 12:42:00,40.0,39.0,-100.00,ESE,120,4.0,8.0,98,0.02,,,1.21,,2013-03-18 16:42:00,
2013-03-18 12:52:00,40.0,39.0,-100.00,ESE,120,4.0,8.0,98,0.02,,,1.21,,2013-03-18 16:52:00,
2013-03-18 13:22:00,43.0,43.0,-100.00,SSW,196,0.0,8.0,99,0.00,,,1.21,,2013-03-18 17:22:00,
2013-03-18 13:33:00,43.0,43.0,-100.00,SSW,196,0.0,8.0,99,0.00,,,1.21,,2013-03-18 17:33:00,
2013-03-18 13:42:00,43.0,43.0,-100.00,SSW,196,0.0,8.0,99,0.00,,,1.21,,2013-03-18 17:42:00,
2013-03-18 13:52:00,43.0,43.0,-100.00,SSW,196,0.0,8.0,99,0.00,,,1.21,,2013-03-18 17:52:00,
2013-03-18 14:22:00,46.0,46.0,-100.00,West,261,4.0,9.0,99,0.00,,,1.21,,2013-03-18 18:22:00,
2013-03-18 14:32:00,46.0,46.0,-100.00,West,261,4.0,9.0,99,0.00,,,1.21,,2013-03-18 18:32:00,
2013-03-18 14:42:00,46.0,46.0,-100.00,West,261,4.0,9.0,99,0.00,,,1.21,,2013-03-18 18:42:00,
2013-03-18 14:52:00,46.0,46.0,-100.00,West,261,4.0,9.0,99,0.00,,,1.21,,2013-03-18 18:52:00,
2013-03-18 15:22:00,47.0,47.0,-100.00,WSW,250,5.0,10.0,99,0.02,,,1.14,,2013-03-18 19:22:00,
2013-03-18 15:33:00,47.0,47.0,-100.00,WSW,250,5.0,10.0,99,0.02,,,1.14,,2013-03-18 19:33:00,
2013-03-18 15:42:00,47.0,47.0,-100.00,WSW,250,5.0,10.0,99,0.02,,,1.14,,2013-03-18 19:42:00,
2013-03-18 15:52:00,47.0,47.0,-100.00,WSW,250,5.0,10.0,99,0.02,,,1.14,,2013-03-18 19:52:00,
2013-03-18 16:23:00,48.0,48.0,-100.00,WSW,242,6.0,13.0,99,0.01,,,1.10,,2013-03-18 20:23:00,
2013-03-18 16:33:00,48.0,48.0,-100.00,WSW,242,6.0,13.0,99,0.01,,,1.10,,2013-03-18 20:33:00,
2013-03-18 16:42:00,48.0,48.0,-100.00,WSW,242,6.0,13.0,99,0.01,,,1.10,,2013-03-18 20:42:00,
2013-03-18 16:52:00,48.0,48.0,-100.00,WSW,242,6.0,13.0,99,0.01,,,1.10,,2013-03-18 20:52:00,
2013-03-18 17:22:00,49.0,49.0,-100.00,SW,224,9.0,17.0,99,0.00,,,1.05,,2013-03-18 21:22:00,
2013-03-18 17:33:00,49.0,49.0,-100.00,SW,224,9.0,17.0,99,0.00,,,1.05,,2013-03-18 21:33:00,
2013-03-18 17:43:00,49.0,49.0,-100.00,SW,224,9.0,17.0,99,0.00,,,1.05,,2013-03-18 21:43:00,
2013-03-18 17:52:00,49.0,49.0,-100.00,SW,224,9.0,17.0,99,0.00,,,1.05,,2013-03-18 21:52:00,
2013-03-18 18:23:00,48.0,46.0,-100.00,SW,236,6.0,19.0,93,0.00,,,1.03,,2013-03-18 22:23:00,
2013-03-18 18:33:00,48.0,46.0,-100.00,SW,236,6.0,19.0,93,0.00,,,1.03,,2013-03-18 22:33:00,
2013-03-18 18:42:00,48.0,46.0,-100.00,SW,236,6.0,19.0,93,0.00,,,1.03,,2013-03-18 22:42:00,
2013-03-18 18:52:00,48.0,46.0,-100.00,SW,236,6.0,19.0,93,0.00,,,1.03,,2013-03-18 22:52:00,
2013-03-18 19:23:00,48.0,45.0,-100.00,WSW,239,6.0,14.0,91,0.00,,,1.03,,2013-03-18 23:23:00,
2013-03-18 19:33:00,48.0,45.0,-100.00,WSW,239,6.0,14.0,91,0.00,,,1.03,,2013-03-18 23:33:00,
2013-03-18 19:42:00,48.0,45.0,-100.00,WSW,239,6.0,14.0,91,0.00,,,1.03,,2013-03-18 23:42:00,
2013-03-18 19:52:00,48.0,45.0,-100.00,WSW,239,6.0,14.0,91,0.00,,,1.03,,2013-03-18 23:52:00,
2013-03-18 20:23:00,47.0,44.0,-100.00,WSW,255,6.0,19.0,88,0.00,,,0.99,,2013-03-19 00:23:00,
2013-03-18 20:32:00,47.0,44.0,-100.00,WSW,255,6.0,19.0,88,0.00,,,0.99,,2013-03-19 00:32:00,
2013-03-18 20:42:00,47.0,44.0,-100.00,WSW,255,6.0,19.0,88,0.00,,,0.99,,2013-03-19 00:42:00,
2013-03-18 20:52:00,47.0,44.0,-100.00,WSW,255,6.0,19.0,88,0.00,,,0.99,,2013-03-19 00:52:00,
2013-03-18 21:23:00,44.0,41.0,-100.00,West,266,5.0,14.0,90,0.00,,,0.96,,2013-03-19 01:23:00,
2013-03-18 21:33:00,44.0,41.0,-100.00,West,266,5.0,14.0,90,0.00,,,0.96,,2013-03-19 01:33:00,
2013-03-18 21:43:00,44.0,41.0,-100.00,West,266,5.0,14.0,90,0.00,,,0.96,,2013-03-19 01:43:00,
2013-03-18 21:52:00,44.0,41.0,-100.00,West,266,5.0,14.0,90,0.00,,,0.96,,2013-03-19 01:52:00,
2013-03-18 22:23:00,43.0,39.0,-100.00,West,269,7.0,20.0,86,0.00,,,0.90,,2013-03-19 02:23:00,
2013-03-18 22:33:00,43.0,39.0,-100.00,West,269,7.0,20.0,86,0.00,,,0.90,,2013-03-19 02:33:00,
2013-03-18 22:42:00,43.0,39.0,-100.00,West,269,7.0,20.0,86,0.00,,,0.90,,2013-03-19 02:42:00,
2013-03-18 22:52:00,43.0,39.0,-100.00,West,269,7.0,20.0,86,0.00,,,0.90,,2013-03-19 02:52:00,